createdAt,value
2019-02-14T02:37:36.983Z,-0.43
2019-02-14T02:52:41.844Z,-0.29
2019-02-14T02:55:11.636Z,-0.08
2019-02-14T03:00:59.041Z,0.07
2019-02-14T04:24:30.218Z,0.52
2019-02-14T04:29:48.090Z,0.50
2019-02-14T04:35:05.712Z,0.37
2019-02-14T04:40:23.790Z,0.47
2019-02-14T04:45:41.322Z,0.24
2019-02-14T04:50:59.514Z,0.35
2019-02-14T04:56:17.366Z,0.48
2019-02-14T05:01:35.113Z,0.43
2019-02-14T05:06:52.802Z,0.53
2019-02-14T05:12:10.701Z,0.60
2019-02-14T05:17:28.606Z,0.39
2019-02-14T05:22:46.155Z,0.37
2019-02-14T05:28:03.383Z,0.35
2019-02-14T05:33:22.182Z,0.24
2019-02-14T05:38:40.406Z,0.33
2019-02-14T05:43:58.161Z,0.46
2019-02-14T05:49:16.063Z,0.26
2019-02-14T05:54:33.292Z,0.45
2019-02-14T05:59:50.950Z,0.61
2019-02-14T06:05:08.521Z,0.71
2019-02-14T06:10:26.221Z,0.81
2019-02-14T06:15:44.164Z,0.72
2019-02-14T06:21:01.745Z,0.83
2019-02-14T06:26:19.400Z,0.95
2019-02-14T06:31:36.649Z,0.77
2019-02-14T06:36:53.987Z,0.83
2019-02-14T06:42:11.643Z,0.79
2019-02-14T06:47:30.035Z,0.89
2019-02-14T06:52:48.155Z,1.09
2019-02-14T06:58:06.178Z,1.19
2019-02-14T07:03:24.258Z,1.32
2019-02-14T07:08:42.087Z,1.50
2019-02-14T07:14:00.651Z,1.46
2019-02-14T07:19:18.112Z,1.30
2019-02-14T07:24:35.908Z,1.42
2019-02-14T07:29:53.206Z,1.65
2019-02-14T07:35:11.711Z,1.63
2019-02-14T07:40:30.340Z,1.97
2019-02-14T07:45:48.223Z,2.17
2019-02-14T07:51:05.986Z,2.43
2019-02-14T07:56:23.473Z,2.67
2019-02-14T08:01:41.298Z,2.80
2019-02-14T08:06:58.946Z,3.05
2019-02-14T08:12:16.405Z,3.33
2019-02-14T08:17:34.114Z,3.40
2019-02-14T08:22:52.343Z,3.31
2019-02-14T08:28:09.934Z,3.66
2019-02-14T08:33:27.194Z,4.30
2019-02-14T08:38:45.113Z,4.74
2019-02-14T08:44:02.966Z,5.09
2019-02-14T08:49:20.737Z,5.54
2019-02-14T08:54:38.524Z,5.78
2019-02-14T08:59:55.993Z,6.22
2019-02-14T09:05:14.146Z,6.23
2019-02-14T09:10:31.971Z,6.64
2019-02-14T09:15:51.064Z,6.56
2019-02-14T09:21:08.858Z,6.72
2019-02-14T09:26:27.083Z,7.06
2019-02-14T09:31:44.931Z,7.42
2019-02-14T09:37:02.697Z,7.74
2019-02-14T09:42:20.691Z,7.77
2019-02-14T09:47:37.985Z,7.98
2019-02-14T09:52:55.875Z,8.25
2019-02-14T09:58:13.626Z,8.64
2019-02-14T10:03:31.184Z,8.42
2019-02-14T10:08:48.985Z,8.76
2019-02-14T10:14:06.371Z,8.10
2019-02-14T10:19:25.170Z,8.56
2019-02-14T10:24:42.457Z,7.88
2019-02-14T10:30:00.629Z,7.51
2019-02-14T10:35:18.378Z,7.74
2019-02-14T10:40:35.710Z,7.84
2019-02-14T10:45:54.300Z,7.88
2019-02-14T10:51:12.510Z,7.37
2019-02-14T10:56:30.238Z,7.30
2019-02-14T11:01:48.021Z,6.92
2019-02-14T11:07:05.382Z,6.35
2019-02-14T11:12:23.074Z,6.52
2019-02-14T11:17:40.509Z,6.73
2019-02-14T11:22:58.640Z,6.99
2019-02-14T11:28:16.367Z,7.06
2019-02-14T11:33:34.207Z,6.83
2019-02-14T11:38:52.080Z,7.21
2019-02-14T11:44:09.554Z,7.39
2019-02-14T11:49:27.981Z,7.49
2019-02-14T11:54:46.348Z,7.36
2019-02-14T12:00:04.724Z,7.51
2019-02-14T12:05:22.959Z,8.00
2019-02-14T12:10:40.290Z,8.21
2019-02-14T12:15:58.733Z,8.43
2019-02-14T12:21:17.205Z,8.98
2019-02-14T12:26:35.379Z,9.80
2019-02-14T12:31:53.742Z,10.15
2019-02-14T12:37:11.345Z,10.56
2019-02-14T12:42:29.493Z,10.65
2019-02-14T12:47:46.870Z,10.63
2019-02-14T12:53:04.538Z,10.83
2019-02-14T12:58:22.024Z,11.01
2019-02-14T13:03:39.408Z,11.13
2019-02-14T13:08:57.216Z,10.52
2019-02-14T13:14:15.955Z,10.01
2019-02-14T13:19:33.311Z,9.62
2019-02-14T13:24:51.017Z,9.82
2019-02-14T13:30:10.077Z,9.81
2019-02-14T13:35:27.407Z,9.80
2019-02-14T13:40:45.085Z,9.65
2019-02-14T13:46:03.416Z,9.63
2019-02-14T13:51:21.726Z,9.71
2019-02-14T13:56:39.678Z,10.21
2019-02-14T14:01:57.707Z,10.67
2019-02-14T14:07:15.526Z,13.05
2019-02-14T14:12:33.477Z,14.48
2019-02-14T14:17:50.937Z,14.88
2019-02-14T14:23:08.682Z,15.04
2019-02-14T14:28:25.872Z,15.53
2019-02-14T14:33:43.934Z,14.03
2019-02-14T14:39:01.580Z,12.53
2019-02-14T14:44:40.854Z,11.47
2019-02-14T14:49:59.950Z,10.83
2019-02-14T14:55:17.636Z,10.37
2019-02-14T15:00:34.994Z,10.25
2019-02-14T15:05:52.542Z,10.32
2019-02-14T15:11:10.413Z,9.64
2019-02-14T15:16:27.771Z,9.57
2019-02-14T15:21:45.646Z,9.44
2019-02-14T15:27:04.281Z,9.12
2019-02-14T15:32:22.877Z,8.87
2019-02-14T15:37:41.999Z,7.92
2019-02-14T15:42:58.579Z,7.77
2019-02-14T15:48:16.118Z,7.15
2019-02-14T15:53:33.752Z,6.43
2019-02-14T15:58:52.329Z,6.15
2019-02-14T16:04:09.516Z,6.25
2019-02-14T16:09:27.053Z,6.20
2019-02-14T16:14:46.281Z,5.98
2019-02-14T16:20:04.648Z,5.85
2019-02-14T16:25:22.582Z,5.18
2019-02-14T16:30:41.242Z,5.03
2019-02-14T16:35:59.812Z,4.81
2019-02-14T16:41:21.043Z,4.61
2019-02-14T16:46:39.277Z,4.39
2019-02-14T16:51:58.040Z,4.21
2019-02-14T16:57:19.016Z,3.94
2019-02-14T17:02:36.975Z,3.60
2019-02-14T17:07:56.319Z,3.10
2019-02-14T17:13:17.065Z,2.92
2019-02-14T17:18:35.568Z,2.69
2019-02-14T17:23:53.552Z,2.44
2019-02-14T17:29:20.185Z,2.02
2019-02-14T17:34:40.280Z,1.59
2019-02-14T17:39:58.380Z,1.55
2019-02-14T17:45:16.209Z,1.52
2019-02-14T17:50:34.373Z,1.34
2019-02-14T17:55:53.435Z,1.12
2019-02-14T18:01:11.777Z,0.75
2019-02-14T18:06:31.009Z,0.55
2019-02-14T18:11:49.092Z,0.68
2019-02-14T18:17:07.220Z,0.64
2019-02-14T18:22:25.783Z,0.66
2019-02-14T18:27:44.110Z,0.60
2019-02-14T18:33:03.384Z,0.52
2019-02-14T18:38:21.405Z,0.47
2019-02-14T18:43:40.261Z,0.22
2019-02-14T18:48:57.792Z,0.15
2019-02-14T18:54:16.395Z,0.09
2019-02-14T18:59:35.365Z,-0.08
2019-02-14T19:04:53.591Z,-0.15
2019-02-14T19:10:12.556Z,-0.25
2019-02-14T19:15:30.132Z,-0.51
2019-02-14T19:20:50.056Z,-0.47
2019-02-14T19:26:07.805Z,-0.49
2019-02-14T19:31:26.307Z,-0.60
2019-02-14T19:36:45.116Z,-0.73
2019-02-14T19:42:05.026Z,-0.61
2019-02-14T19:47:23.107Z,-0.72
2019-02-14T19:52:41.739Z,-0.81
2019-02-14T19:58:00.042Z,-0.81
2019-02-14T20:03:18.839Z,-0.87
2019-02-14T20:08:36.809Z,-0.94
2019-02-14T20:13:54.663Z,-0.85
2019-02-14T20:19:12.748Z,-0.85
2019-02-14T20:24:30.581Z,-0.87
2019-02-14T20:29:49.574Z,-1.06
2019-02-14T20:35:07.865Z,-1.09
2019-02-14T20:40:25.500Z,-1.05
2019-02-14T20:45:43.964Z,-1.06
2019-02-14T20:51:02.314Z,-1.06
2019-02-14T20:56:20.249Z,-1.16
2019-02-14T21:01:38.672Z,-1.16
2019-02-14T21:06:56.892Z,-1.15
2019-02-14T21:12:15.405Z,-1.21
2019-02-14T21:17:32.866Z,-1.27
2019-02-14T21:22:51.307Z,-1.33
2019-02-14T21:28:09.166Z,-1.37
2019-02-14T21:33:29.369Z,-1.41
2019-02-14T21:38:48.354Z,-1.50
2019-02-14T21:44:06.088Z,-1.62
2019-02-14T21:49:24.538Z,-1.58
2019-02-14T21:54:42.416Z,-1.52
2019-02-14T22:00:00.105Z,-1.50
2019-02-14T22:05:23.918Z,-1.66
2019-02-14T22:10:35.606Z,-1.58
2019-02-14T22:15:53.393Z,-1.68
2019-02-14T22:21:11.035Z,-1.82
2019-02-14T22:26:28.882Z,-1.70
2019-02-14T22:31:47.143Z,-1.74
2019-02-14T22:37:05.203Z,-1.87
2019-02-14T22:42:23.136Z,-1.87
2019-02-14T22:47:41.469Z,-1.79
2019-02-14T22:52:59.020Z,-1.82
2019-02-14T22:58:16.942Z,-1.89
2019-02-14T23:03:35.355Z,-2.02
2019-02-14T23:08:53.270Z,-1.97
2019-02-14T23:14:11.446Z,-1.84
2019-02-14T23:19:29.394Z,-1.98
2019-02-14T23:24:48.585Z,-1.97
2019-02-14T23:30:07.641Z,-2.08
2019-02-14T23:35:25.166Z,-2.09
2019-02-14T23:40:44.097Z,-2.14
2019-02-14T23:46:01.894Z,-2.09
2019-02-14T23:51:19.659Z,-2.24
2019-02-14T23:56:37.024Z,-2.12
